Szolnok, Hungary
Current Conditions -  °F | °C
As of 10:45 PM on Friday 24 Oct 2014 (Local Time) from LHSN Reporting Station
Overcast Overcast  
Wind Chill: 36°   Ceiling: 900
Heat Index: 43°   Visibility: 6mi
Dew Point: 39°   Wind: 13mph
Humidity: 87%   Direction: 50°NE
Pressure: 30.18"   Gusts: NA
Location:  47.18°N, 20.18°E
Report Text: LHSN 242045Z 05006MPS 9999 BKN009 OVC013 06/04 Q1022 NOSIG RMK GRN
Loading
Personal Weather Stations






























Interactive Weather Map
Tropical Storm Tracking
New forecast layout! Learn more

10-Day Weather Forecast

Advertisements
Track Severe Weather on mobile